Time;durP1;ratioP1;P1;durP2;ratioP2;P2;SDS_P1;SDS_P2;PMS_P1;PMS_P2;Temp;Humidity;BMP_temperature;BMP_pressure;BME280_temperature;BME280_humidity;BME280_pressure;Samples;Min_cycle;Max_cycle;Signal;HPM_P1;HPM_P2
2023/02/17 00:00:23;;;;;;;5.78;3.65;;;10.20;35.70;;;;;;5050947;28;20333;-72
2023/02/17 00:02:55;;;;;;;8.15;3.53;;;10.10;36.40;;;;;;5051980;28;20289;-71
2023/02/17 00:05:22;;;;;;;5.38;3.55;;;10.10;36.70;;;;;;5055264;28;20225;-70
2023/02/17 00:07:49;;;;;;;6.03;3.67;;;10.10;36.40;;;;;;5054694;28;20657;-71
2023/02/17 00:10:18;;;;;;;4.65;2.88;;;10.10;36.20;;;;;;5063853;28;20265;-72
2023/02/17 00:12:45;;;;;;;5.80;3.20;;;10.10;36.30;;;;;;5058007;28;20559;-70
2023/02/17 00:15:12;;;;;;;5.05;3.33;;;10.00;36.20;;;;;;5055145;28;20669;-71
2023/02/17 00:17:39;;;;;;;6.35;3.78;;;10.00;36.10;;;;;;5054909;28;20281;-71
2023/02/17 00:20:07;;;;;;;6.45;2.88;;;10.00;36.00;;;;;;5054807;28;20325;-72
2023/02/17 00:22:34;;;;;;;5.03;2.88;;;10.00;35.90;;;;;;5054637;28;20245;-72
2023/02/17 00:25:01;;;;;;;5.82;3.30;;;10.00;35.80;;;;;;5059047;28;20272;-71
2023/02/17 00:27:29;;;;;;;5.10;2.70;;;10.00;36.10;;;;;;5074679;28;20201;-75
2023/02/17 00:29:56;;;;;;;5.57;3.25;;;10.00;36.50;;;;;;5074288;28;20621;-71
2023/02/17 00:32:23;;;;;;;4.82;2.58;;;10.00;36.00;;;;;;5074434;28;20230;-71
2023/02/17 00:34:52;;;;;;;6.45;3.50;;;10.00;35.70;;;;;;5074526;28;20276;-72
2023/02/17 00:37:19;;;;;;;6.60;2.78;;;10.00;35.80;;;;;;5074622;28;20285;-71
2023/02/17 00:39:46;;;;;;;4.10;2.75;;;10.00;36.00;;;;;;5074311;28;20598;-72
2023/02/17 00:42:13;;;;;;;4.68;3.22;;;10.00;35.80;;;;;;5064035;28;20178;-71
2023/02/17 00:44:41;;;;;;;5.95;3.58;;;10.00;35.90;;;;;;5053622;28;20277;-71
2023/02/17 00:47:08;;;;;;;4.05;2.72;;;10.00;36.00;;;;;;5053966;28;20622;-71
2023/02/17 00:49:35;;;;;;;4.05;2.55;;;10.00;36.00;;;;;;5054043;28;20344;-71
2023/02/17 00:52:03;;;;;;;6.40;3.78;;;10.00;36.30;;;;;;5054153;28;20190;-69
2023/02/17 00:54:30;;;;;;;5.70;2.90;;;10.00;36.40;;;;;;5053862;28;20248;-71
2023/02/17 00:56:57;;;;;;;4.25;2.63;;;10.00;36.30;;;;;;5053926;28;20198;-71
2023/02/17 00:59:24;;;;;;;4.97;2.70;;;10.00;36.20;;;;;;5053956;28;20284;-70
2023/02/17 01:01:52;;;;;;;3.70;2.15;;;10.00;36.20;;;;;;5053884;28;20321;-71
2023/02/17 01:04:19;;;;;;;5.25;2.83;;;10.00;36.10;;;;;;5053885;28;20286;-70
2023/02/17 01:06:46;;;;;;;5.05;3.40;;;10.00;35.90;;;;;;5053991;28;20226;-70
2023/02/17 01:09:14;;;;;;;4.07;2.70;;;9.90;36.80;;;;;;5053678;28;20637;-71
2023/02/17 01:11:42;;;;;;;5.32;2.63;;;10.00;35.70;;;;;;5053951;28;20197;-71
2023/02/17 01:14:12;;;;;;;5.32;2.38;;;9.90;36.30;;;;;;5052762;28;20205;-71
2023/02/17 01:16:40;;;;;;;4.78;2.50;;;9.90;36.50;;;;;;5053828;28;20289;-71
2023/02/17 01:19:12;;;;;;;5.35;2.60;;;9.90;36.60;;;;;;5054020;28;20607;-70
2023/02/17 01:21:40;;;;;;;3.92;2.65;;;9.80;36.30;;;;;;5053165;28;20313;-73
2023/02/17 01:24:08;;;;;;;4.85;2.63;;;9.80;36.50;;;;;;5073170;28;20640;-71
2023/02/17 01:26:37;;;;;;;4.25;2.95;;;9.80;36.60;;;;;;5073578;28;20637;-71
2023/02/17 01:29:05;;;;;;;9.30;3.20;;;9.70;36.60;;;;;;5073207;28;20268;-72
2023/02/17 01:31:32;;;;;;;8.25;2.83;;;9.80;36.30;;;;;;5073544;28;20225;-70
2023/02/17 01:34:02;;;;;;;4.00;2.50;;;9.80;36.30;;;;;;5073090;28;20632;-71
2023/02/17 01:36:30;;;;;;;6.50;2.33;;;9.70;36.40;;;;;;5073143;28;20287;-71
2023/02/17 01:38:57;;;;;;;5.28;2.17;;;9.80;36.30;;;;;;5062723;28;20638;-71
2023/02/17 01:41:26;;;;;;;4.10;2.13;;;9.70;36.40;;;;;;5052634;28;20218;-71
2023/02/17 01:44:08;;;;;;;5.03;2.50;;;9.70;36.20;;;;;;5052903;28;20285;-71
2023/02/17 01:46:36;;;;;;;3.92;2.30;;;9.80;36.50;;;;;;5052977;28;20637;-70
2023/02/17 01:49:09;;;;;;;3.78;2.58;;;9.80;36.50;;;;;;5053317;28;20242;-71
2023/02/17 01:51:38;;;;;;;4.15;2.38;;;9.80;36.50;;;;;;5053466;28;20249;-72
2023/02/17 01:54:09;;;;;;;6.38;3.15;;;9.80;36.40;;;;;;5053177;28;20568;-71
2023/02/17 01:56:39;;;;;;;4.90;2.75;;;9.90;36.20;;;;;;5053040;28;20694;-70
2023/02/17 01:59:11;;;;;;;3.65;1.90;;;9.90;36.40;;;;;;5052990;28;20288;-70
2023/02/17 02:01:40;;;;;;;4.78;3.00;;;9.90;36.40;;;;;;5052783;28;20317;-71
2023/02/17 02:04:08;;;;;;;6.63;3.45;;;10.00;35.60;;;;;;5053138;28;20230;-71
2023/02/17 02:06:38;;;;;;;5.22;2.50;;;10.00;35.30;;;;;;5053312;28;20190;-71
2023/02/17 02:09:09;;;;;;;5.15;2.55;;;10.00;35.20;;;;;;5052946;28;20186;-71
2023/02/17 02:11:36;;;;;;;4.03;2.80;;;10.10;35.50;;;;;;5052992;28;20720;-71
2023/02/17 02:14:05;;;;;;;3.35;2.53;;;10.10;35.20;;;;;;5052849;28;20240;-71
2023/02/17 02:16:41;;;;;;;3.80;2.72;;;10.10;35.50;;;;;;5052555;28;20628;-71
2023/02/17 02:19:23;;;;;;;4.40;2.33;;;10.10;35.30;;;;;;5052849;28;20224;-72
2023/02/17 02:22:18;;;;;;;6.35;2.50;;;10.10;35.70;;;;;;5052558;28;20221;-78
2023/02/17 02:24:59;;;;;;;4.75;2.70;;;10.20;35.70;;;;;;5032615;28;20194;-71
2023/02/17 02:27:51;;;;;;;4.38;2.80;;;10.20;35.70;;;;;;5031459;28;20729;-71
2023/02/17 02:30:28;;;;;;;5.40;2.75;;;10.30;35.80;;;;;;5032347;28;20293;-77
2023/02/17 02:33:06;;;;;;;4.95;3.10;;;10.20;36.50;;;;;;5032669;28;20238;-70
2023/02/17 02:35:43;;;;;;;3.88;2.65;;;10.20;36.50;;;;;;5070450;28;20194;-71
2023/02/17 02:38:15;;;;;;;4.05;2.50;;;10.30;36.20;;;;;;5072138;28;20220;-70
2023/02/17 02:40:47;;;;;;;6.00;2.85;;;10.30;35.80;;;;;;5068596;28;20288;-70
2023/02/17 02:43:15;;;;;;;5.82;3.00;;;10.30;35.80;;;;;;5052328;28;20269;-70
2023/02/17 02:45:42;;;;;;;5.18;2.85;;;10.40;35.80;;;;;;5051845;28;20243;-70
2023/02/17 02:48:11;;;;;;;5.10;3.13;;;10.50;35.60;;;;;;5051871;28;20281;-70
2023/02/17 02:51:02;;;;;;;4.32;2.65;;;10.50;35.20;;;;;;5052354;28;20589;-72
2023/02/17 02:53:58;;;;;;;4.35;2.95;;;10.60;35.00;;;;;;5052299;28;20236;-71
2023/02/17 02:56:40;;;;;;;4.63;3.03;;;10.70;35.50;;;;;;5051896;28;20213;-71
2023/02/17 02:59:17;;;;;;;5.72;2.88;;;10.80;34.70;;;;;;5051988;28;20187;-71
2023/02/17 03:01:51;;;;;;;5.35;2.50;;;10.80;34.60;;;;;;5051962;28;20321;-71
2023/02/17 03:04:30;;;;;;;6.95;2.78;;;10.90;34.40;;;;;;5052341;28;20282;-70
2023/02/17 03:07:01;;;;;;;5.03;3.00;;;11.00;34.50;;;;;;5052423;28;20198;-71
2023/02/17 03:09:29;;;;;;;7.35;3.45;;;11.00;34.40;;;;;;5052388;28;20210;-71
2023/02/17 03:11:57;;;;;;;5.35;2.78;;;11.00;34.40;;;;;;5052091;28;20704;-71
2023/02/17 03:14:25;;;;;;;10.27;3.05;;;11.10;34.40;;;;;;5051969;28;20206;-71
2023/02/17 03:16:52;;;;;;;4.25;2.38;;;11.10;34.30;;;;;;5051927;28;20280;-69
2023/02/17 03:19:25;;;;;;;5.63;2.92;;;11.10;34.20;;;;;;5051984;28;20226;-70
2023/02/17 03:21:55;;;;;;;5.22;3.10;;;11.20;34.40;;;;;;5051933;28;20266;-72
2023/02/17 03:24:23;;;;;;;3.78;2.53;;;11.20;34.40;;;;;;5052136;28;20190;-71
2023/02/17 03:26:50;;;;;;;3.83;2.55;;;11.20;34.20;;;;;;5052121;28;20202;-72
2023/02/17 03:29:17;;;;;;;4.70;3.00;;;11.30;34.20;;;;;;5071900;28;20217;-70
2023/02/17 03:31:44;;;;;;;6.95;2.50;;;11.30;34.30;;;;;;5071892;28;20277;-71
2023/02/17 03:34:11;;;;;;;7.57;2.90;;;11.30;34.00;;;;;;5071451;28;20285;-72
2023/02/17 03:36:39;;;;;;;3.65;2.70;;;11.30;34.20;;;;;;5071846;28;20290;-71
2023/02/17 03:39:06;;;;;;;4.38;2.22;;;11.30;34.20;;;;;;5055416;28;20610;-70
2023/02/17 03:41:33;;;;;;;5.57;3.05;;;11.30;33.70;;;;;;5055745;28;20218;-70
2023/02/17 03:44:00;;;;;;;8.93;3.40;;;11.30;33.60;;;;;;5056079;28;20277;-71
2023/02/17 03:46:27;;;;;;;5.78;2.60;;;11.30;33.50;;;;;;5055411;28;20526;-71
2023/02/17 03:48:55;;;;;;;4.55;2.05;;;11.40;33.40;;;;;;5055634;28;20221;-71
2023/02/17 03:51:24;;;;;;;3.88;2.75;;;11.40;33.20;;;;;;5055331;28;20225;-71
2023/02/17 03:53:52;;;;;;;4.45;2.25;;;11.40;33.00;;;;;;5055298;28;20277;-71
2023/02/17 03:56:19;;;;;;;5.68;2.38;;;11.40;33.30;;;;;;5054514;28;20186;-71
2023/02/17 03:58:47;;;;;;;5.18;2.63;;;11.40;33.30;;;;;;5055062;28;20229;-71
2023/02/17 04:01:14;;;;;;;4.63;2.25;;;11.40;33.20;;;;;;5054729;28;20317;-71
2023/02/17 04:03:41;;;;;;;3.58;2.30;;;11.40;33.30;;;;;;5055406;28;20282;-71
2023/02/17 04:06:10;;;;;;;4.38;2.88;;;11.40;33.50;;;;;;5055097;28;20279;-71
2023/02/17 04:08:38;;;;;;;3.67;2.35;;;11.40;33.30;;;;;;5054791;28;20300;-72
2023/02/17 04:11:08;;;;;;;4.22;2.08;;;11.40;33.20;;;;;;5055286;28;20605;-71
2023/02/17 04:13:35;;;;;;;3.50;2.20;;;11.50;33.10;;;;;;5055053;28;20312;-71
2023/02/17 04:16:03;;;;;;;4.55;2.70;;;11.50;32.90;;;;;;5054913;28;20273;-71
2023/02/17 04:18:33;;;;;;;4.60;2.00;;;11.60;32.70;;;;;;5055238;28;20708;-71
2023/02/17 04:21:00;;;;;;;3.92;2.30;;;11.60;32.70;;;;;;5054939;28;20226;-71
2023/02/17 04:23:27;;;;;;;6.35;2.35;;;11.60;32.60;;;;;;5054737;28;20182;-72
2023/02/17 04:25:54;;;;;;;3.40;2.40;;;11.70;32.60;;;;;;5055110;28;20233;-71
2023/02/17 04:28:23;;;;;;;3.90;2.20;;;11.70;32.70;;;;;;5054384;28;20583;-71
2023/02/17 04:30:51;;;;;;;4.50;2.60;;;11.70;32.70;;;;;;5054997;28;20269;-73
2023/02/17 04:33:18;;;;;;;5.00;2.50;;;11.80;32.40;;;;;;5054647;28;20199;-71
2023/02/17 04:35:47;;;;;;;5.15;2.72;;;11.80;32.40;;;;;;5054873;28;20240;-72
2023/02/17 04:38:14;;;;;;;4.95;2.90;;;11.80;32.30;;;;;;5054681;28;20283;-71
2023/02/17 04:40:41;;;;;;;3.92;2.17;;;11.80;32.20;;;;;;5054368;28;20186;-70
2023/02/17 04:43:08;;;;;;;5.15;3.08;;;11.80;32.00;;;;;;5054103;28;20252;-71
2023/02/17 04:45:37;;;;;;;3.30;2.35;;;11.90;32.00;;;;;;5054587;28;20194;-70
2023/02/17 04:48:06;;;;;;;4.03;2.30;;;11.90;32.00;;;;;;5054421;28;20264;-73
2023/02/17 04:50:33;;;;;;;3.42;2.10;;;11.90;31.70;;;;;;5054714;28;20277;-71
2023/02/17 04:53:00;;;;;;;3.60;2.15;;;11.90;31.70;;;;;;5054663;28;20688;-72
2023/02/17 04:55:28;;;;;;;3.03;2.03;;;12.00;31.50;;;;;;5054060;28;20240;-71
2023/02/17 04:57:55;;;;;;;3.50;2.00;;;12.00;31.60;;;;;;5054352;28;20186;-71
2023/02/17 05:00:22;;;;;;;5.85;2.25;;;12.00;31.50;;;;;;5054050;28;20218;-70
2023/02/17 05:02:51;;;;;;;5.65;2.00;;;12.10;31.50;;;;;;5053745;28;20324;-72
2023/02/17 05:05:19;;;;;;;5.88;2.47;;;12.10;31.50;;;;;;5043269;28;20191;-71
2023/02/17 05:07:46;;;;;;;3.78;2.17;;;12.00;31.60;;;;;;5057819;28;20532;-71
2023/02/17 05:10:15;;;;;;;3.08;1.90;;;12.00;31.70;;;;;;5073364;28;20190;-71
2023/02/17 05:12:42;;;;;;;3.85;2.03;;;12.10;31.90;;;;;;5074354;28;20277;-70
2023/02/17 05:15:09;;;;;;;8.52;4.65;;;12.10;31.70;;;;;;5074250;28;20617;-71
2023/02/17 05:17:36;;;;;;;6.80;2.28;;;12.10;31.70;;;;;;5073701;28;20225;-70
2023/02/17 05:20:06;;;;;;;5.07;2.13;;;12.10;31.70;;;;;;5074166;28;20288;-71
2023/02/17 05:22:33;;;;;;;3.08;1.98;;;12.10;31.80;;;;;;5073862;28;20308;-71
2023/02/17 05:25:00;;;;;;;9.93;2.10;;;12.10;32.00;;;;;;5069489;28;20608;-71
2023/02/17 05:27:27;;;;;;;4.95;2.15;;;12.10;32.30;;;;;;5053712;28;20277;-70
2023/02/17 05:29:54;;;;;;;3.92;1.85;;;12.10;32.50;;;;;;5053806;28;20198;-71
2023/02/17 05:32:22;;;;;;;6.53;1.58;;;12.20;32.50;;;;;;5053078;28;20274;-71
2023/02/17 05:34:49;;;;;;;6.75;1.90;;;12.20;32.50;;;;;;5053437;28;20190;-71
2023/02/17 05:37:18;;;;;;;5.50;1.73;;;12.20;32.50;;;;;;5053348;28;20297;-71
2023/02/17 05:39:45;;;;;;;5.28;1.75;;;12.20;32.80;;;;;;5053489;28;20277;-71
2023/02/17 05:42:15;;;;;;;3.90;1.70;;;12.30;32.90;;;;;;5053031;28;20330;-71
2023/02/17 05:44:43;;;;;;;4.75;2.10;;;12.30;32.90;;;;;;5054925;28;20213;-71
2023/02/17 05:47:10;;;;;;;3.15;1.60;;;12.30;33.00;;;;;;5052852;28;20198;-71
2023/02/17 05:49:37;;;;;;;8.23;1.77;;;12.30;33.00;;;;;;5053380;28;20190;-71
2023/02/17 05:52:04;;;;;;;3.45;1.42;;;12.30;33.20;;;;;;5053097;28;20207;-72
2023/02/17 05:54:33;;;;;;;7.47;2.17;;;12.30;33.30;;;;;;5064102;28;20669;-71
2023/02/17 05:57:00;;;;;;;2.70;1.60;;;12.30;33.60;;;;;;5072857;28;20225;-71
2023/02/17 05:59:27;;;;;;;5.30;2.10;;;12.30;33.60;;;;;;5069719;28;20269;-69
2023/02/17 06:01:53;;;;;;;4.40;2.40;;;12.30;33.90;;;;;;5061387;28;20309;-71
2023/02/17 06:04:21;;;;;;;5.72;2.03;;;12.30;34.30;;;;;;5059788;28;20269;-71
2023/02/17 06:06:51;;;;;;;4.75;1.85;;;12.30;34.40;;;;;;5070770;28;20609;-70
2023/02/17 06:09:18;;;;;;;5.60;2.13;;;12.30;34.50;;;;;;5072598;28;20190;-71
2023/02/17 06:11:47;;;;;;;4.40;2.08;;;12.30;34.50;;;;;;5069750;28;20243;-71
2023/02/17 06:14:14;;;;;;;4.72;2.10;;;12.30;34.80;;;;;;5061104;28;20186;-72
2023/02/17 06:16:41;;;;;;;5.70;2.15;;;12.30;35.10;;;;;;5052506;28;20197;-71
2023/02/17 06:19:08;;;;;;;2.50;1.52;;;12.30;35.40;;;;;;5051816;28;20273;-71
2023/02/17 06:21:35;;;;;;;3.25;1.50;;;12.30;35.70;;;;;;5052910;28;20222;-73
2023/02/17 06:24:02;;;;;;;6.82;1.40;;;12.30;35.90;;;;;;5051799;28;20198;-71
2023/02/17 06:26:29;;;;;;;6.65;2.00;;;12.30;36.30;;;;;;5052772;28;20195;-71
2023/02/17 06:28:57;;;;;;;9.77;2.28;;;12.30;36.40;;;;;;5052484;28;20273;-71
2023/02/17 06:31:24;;;;;;;3.03;1.60;;;12.30;36.60;;;;;;5056901;28;20327;-70
2023/02/17 06:33:51;;;;;;;2.70;1.65;;;12.40;36.80;;;;;;5072471;28;20225;-71
2023/02/17 06:36:18;;;;;;;4.20;1.92;;;12.40;36.90;;;;;;5072407;28;20280;-77
2023/02/17 06:38:45;;;;;;;4.13;2.17;;;12.30;36.90;;;;;;5051918;28;20275;-71
2023/02/17 06:41:12;;;;;;;7.50;1.70;;;12.40;37.20;;;;;;5052188;28;20676;-71
2023/02/17 06:43:44;;;;;;;4.32;2.05;;;12.40;37.30;;;;;;5048229;28;20735;-71
2023/02/17 06:46:12;;;;;;;9.80;2.00;;;12.40;37.30;;;;;;5052191;28;20241;-72
2023/02/17 06:48:40;;;;;;;4.45;1.52;;;12.40;37.20;;;;;;5053485;28;20290;-71
2023/02/17 06:51:06;;;;;;;5.07;1.65;;;12.50;37.50;;;;;;5064165;28;20591;-71
2023/02/17 06:53:33;;;;;;;6.05;1.50;;;12.50;37.50;;;;;;5055887;28;20244;-71
2023/02/17 06:56:00;;;;;;;3.88;1.65;;;12.50;37.70;;;;;;5051210;28;20296;-71
2023/02/17 06:58:27;;;;;;;3.25;1.67;;;12.50;37.70;;;;;;5052167;28;20233;-71
2023/02/17 07:00:55;;;;;;;5.82;1.92;;;12.50;37.70;;;;;;5048885;28;20218;-71
2023/02/17 07:03:23;;;;;;;6.20;2.40;;;12.60;37.80;;;;;;5050723;28;20732;-70
2023/02/17 07:05:50;;;;;;;7.63;2.40;;;12.60;37.80;;;;;;5051106;28;20700;-71
2023/02/17 07:08:17;;;;;;;9.32;2.45;;;12.60;38.10;;;;;;5053812;28;20585;-70
2023/02/17 07:10:44;;;;;;;2.55;1.33;;;12.60;38.10;;;;;;5051406;28;20726;-71
2023/02/17 07:13:11;;;;;;;8.77;2.35;;;12.70;37.90;;;;;;5071077;28;20276;-70
2023/02/17 07:15:37;;;;;;;5.47;2.33;;;12.70;38.00;;;;;;5076044;28;20221;-69
2023/02/17 07:18:05;;;;;;;5.40;1.73;;;12.80;38.00;;;;;;5075736;28;20284;-71
2023/02/17 07:20:33;;;;;;;6.15;2.17;;;12.80;38.10;;;;;;5076219;28;20232;-71
2023/02/17 07:23:01;;;;;;;5.82;2.15;;;12.80;37.90;;;;;;5076109;28;20384;-71
2023/02/17 07:25:28;;;;;;;4.50;2.15;;;12.90;38.80;;;;;;5076271;28;20248;-72
2023/02/17 07:27:54;;;;;;;6.07;1.88;;;13.00;38.10;;;;;;5075823;28;20224;-71
2023/02/17 07:30:21;;;;;;;3.85;1.85;;;13.00;38.00;;;;;;5076020;28;20602;-70
2023/02/17 07:32:48;;;;;;;2.90;1.77;;;13.10;38.10;;;;;;5076004;28;20236;-71
2023/02/17 07:35:15;;;;;;;8.30;2.10;;;13.20;38.10;;;;;;5075929;28;20288;-71
2023/02/17 07:37:44;;;;;;;5.47;1.80;;;13.20;37.90;;;;;;5075639;28;20295;-71
2023/02/17 07:40:12;;;;;;;4.95;2.28;;;13.30;37.90;;;;;;5075922;28;20277;-71
2023/02/17 07:42:39;;;;;;;6.00;2.40;;;13.30;37.90;;;;;;5075940;28;20306;-71
2023/02/17 07:45:06;;;;;;;4.40;2.03;;;13.30;37.50;;;;;;5075191;28;20626;-71
2023/02/17 07:47:33;;;;;;;6.47;2.75;;;13.40;37.50;;;;;;5075638;28;20531;-71
2023/02/17 07:50:00;;;;;;;4.50;2.03;;;13.40;37.50;;;;;;5075599;28;20190;-71
2023/02/17 07:52:27;;;;;;;4.73;2.60;;;13.40;37.30;;;;;;5075496;28;20220;-71
2023/02/17 07:54:58;;;;;;;4.93;1.70;;;13.40;36.80;;;;;;5075071;28;20550;-70
2023/02/17 07:57:26;;;;;;;6.00;1.90;;;13.40;37.10;;;;;;5075464;28;20475;-72
2023/02/17 07:59:52;;;;;;;5.00;1.90;;;13.40;36.80;;;;;;5075195;28;20526;-71
2023/02/17 08:02:19;;;;;;;4.73;2.20;;;13.40;36.70;;;;;;5074925;28;20232;-71
2023/02/17 08:04:46;;;;;;;5.03;2.83;;;13.40;36.70;;;;;;5075449;28;20543;-71
2023/02/17 08:07:13;;;;;;;4.03;2.80;;;13.40;36.60;;;;;;5075425;28;20525;-71
2023/02/17 08:15:22;;;;;;;6.17;2.67;;;13.50;36.70;;;;;;5032529;28;20421;-71
2023/02/17 08:17:49;;;;;;;6.50;2.10;;;13.50;36.50;;;;;;5064584;28;20475;-70
2023/02/17 08:20:16;;;;;;;6.75;1.88;;;13.60;36.50;;;;;;5074988;28;20472;-71
2023/02/17 08:22:43;;;;;;;4.13;2.00;;;13.70;36.50;;;;;;5057888;28;20386;-70
2023/02/17 08:25:10;;;;;;;5.67;1.77;;;13.80;36.90;;;;;;5066615;28;20823;-71
2023/02/17 08:27:39;;;;;;;5.73;2.43;;;13.90;36.30;;;;;;5071666;28;20528;-73
2023/02/17 08:30:07;;;;;;;3.07;2.03;;;14.00;36.00;;;;;;5060438;28;20457;-71
2023/02/17 08:32:34;;;;;;;3.53;1.77;;;14.10;36.10;;;;;;5053464;28;20545;-71
2023/02/17 08:35:01;;;;;;;9.40;2.20;;;14.20;36.10;;;;;;5058834;28;20880;-71
2023/02/17 08:37:29;;;;;;;5.27;2.13;;;14.30;35.70;;;;;;5054777;28;20819;-71
2023/02/17 08:39:57;;;;;;;5.13;2.07;;;14.30;35.70;;;;;;5054723;28;20472;-71
2023/02/17 08:42:25;;;;;;;4.27;1.97;;;14.30;35.40;;;;;;5055760;28;20449;-72
2023/02/17 08:44:53;;;;;;;3.97;1.83;;;14.40;35.70;;;;;;5057589;28;20520;-70
2023/02/17 08:47:20;;;;;;;3.50;2.10;;;14.50;35.40;;;;;;5057211;28;20480;-71
2023/02/17 08:49:47;;;;;;;6.67;1.73;;;14.50;35.80;;;;;;5056944;28;20480;-71
2023/02/17 08:52:14;;;;;;;4.33;2.03;;;14.60;35.10;;;;;;5055629;28;20533;-71
2023/02/17 08:54:41;;;;;;;5.87;1.73;;;14.70;34.30;;;;;;5055940;28;20842;-71
2023/02/17 08:57:08;;;;;;;4.20;2.53;;;14.80;34.40;;;;;;5056573;28;20824;-71
2023/02/17 08:59:35;;;;;;;5.10;1.90;;;14.70;34.60;;;;;;5055563;28;20609;-72
2023/02/17 09:02:03;;;;;;;3.70;2.00;;;14.70;34.80;;;;;;5055193;28;20515;-71
2023/02/17 09:04:35;;;;;;;7.70;3.13;;;14.70;35.30;;;;;;5056406;28;20524;-71
2023/02/17 09:07:02;;;;;;;7.40;2.40;;;14.60;35.50;;;;;;5056599;28;20444;-71
2023/02/17 09:09:30;;;;;;;5.17;2.37;;;14.60;35.80;;;;;;5056040;28;20452;-71
2023/02/17 09:12:02;;;;;;;4.10;1.90;;;14.60;36.10;;;;;;5053854;28;20924;-70
2023/02/17 09:14:30;;;;;;;3.93;2.03;;;14.60;35.90;;;;;;5056256;28;20453;-71
2023/02/17 09:16:58;;;;;;;4.23;2.00;;;14.60;36.10;;;;;;5057399;28;20483;-71
2023/02/17 09:19:26;;;;;;;7.60;2.90;;;14.60;36.30;;;;;;5063622;28;20530;-71
2023/02/17 09:21:53;;;;;;;5.03;1.57;;;14.60;36.30;;;;;;5056194;28;20472;-71
2023/02/17 09:24:20;;;;;;;4.50;2.00;;;14.50;36.30;;;;;;5062302;28;20575;-71
2023/02/17 09:26:47;;;;;;;4.97;2.10;;;14.50;36.40;;;;;;5062861;28;20998;-70
2023/02/17 09:29:14;;;;;;;11.07;2.30;;;14.50;36.60;;;;;;5052220;28;20942;-71
2023/02/17 09:31:44;;;;;;;10.87;3.30;;;14.50;36.90;;;;;;5055634;28;20533;-71
2023/02/17 09:34:11;;;;;;;4.70;1.90;;;14.50;37.60;;;;;;5052568;28;20429;-71
2023/02/17 09:36:41;;;;;;;7.17;2.20;;;14.40;37.70;;;;;;5056821;28;20544;-71
2023/02/17 09:39:09;;;;;;;5.07;2.80;;;14.40;38.50;;;;;;5059015;28;20429;-70
2023/02/17 09:41:41;;;;;;;8.10;2.37;;;14.50;39.10;;;;;;5063912;28;20441;-70
2023/02/17 09:44:30;;;;;;;8.47;2.37;;;14.50;39.40;;;;;;5062310;28;20875;-69
2023/02/17 09:47:02;;;;;;;5.90;2.13;;;14.60;40.20;;;;;;5054630;28;20467;-69
2023/02/17 09:49:36;;;;;;;8.50;2.50;;;14.60;40.40;;;;;;5053211;28;20520;-72
2023/02/17 09:52:10;;;;;;;9.10;2.40;;;14.60;40.60;;;;;;5054016;28;20514;-71
2023/02/17 09:54:44;;;;;;;8.47;3.30;;;14.70;41.00;;;;;;5058448;28;20914;-71
2023/02/17 09:57:18;;;;;;;8.60;2.40;;;14.70;41.00;;;;;;5058334;28;20444;-71
2023/02/17 09:59:48;;;;;;;4.60;1.67;;;14.80;41.30;;;;;;5058239;28;20525;-70
2023/02/17 10:02:23;;;;;;;9.10;2.30;;;15.00;41.30;;;;;;5054936;28;20562;-71
2023/02/17 10:04:53;;;;;;;5.70;2.90;;;15.10;40.20;;;;;;5057590;28;20526;-71
2023/02/17 10:07:29;;;;;;;7.60;2.50;;;15.10;40.40;;;;;;5062533;28;20519;-71
2023/02/17 10:10:03;;;;;;;6.57;2.60;;;15.10;40.50;;;;;;5054563;28;20444;-71
2023/02/17 10:12:36;;;;;;;3.67;2.17;;;15.20;40.40;;;;;;5062469;28;20969;-71
2023/02/17 10:15:06;;;;;;;4.33;2.03;;;15.50;40.10;;;;;;5067564;28;20459;-71
2023/02/17 10:17:40;;;;;;;4.40;1.70;;;15.90;40.30;;;;;;5064659;28;20471;-71
2023/02/17 10:20:10;;;;;;;6.90;2.70;;;16.10;39.30;;;;;;5061065;28;20439;-71
2023/02/17 10:22:42;;;;;;;9.07;2.33;;;16.10;39.40;;;;;;5065045;28;20530;-71
2023/02/17 10:25:16;;;;;;;6.33;2.50;;;16.00;39.20;;;;;;5068678;28;20528;-71
2023/02/17 10:27:48;;;;;;;10.07;2.20;;;16.00;39.40;;;;;;5068684;28;20440;-71
2023/02/17 10:30:27;;;;;;;8.57;2.17;;;16.00;38.90;;;;;;5061676;28;20598;-71
2023/02/17 10:33:01;;;;;;;6.63;1.83;;;16.00;39.20;;;;;;5059413;28;20467;-71
2023/02/17 10:35:49;;;;;;;5.70;2.07;;;16.10;39.00;;;;;;5068222;28;20528;-70
2023/02/17 10:38:24;;;;;;;4.13;2.17;;;16.30;39.40;;;;;;5064815;28;20442;-71
2023/02/17 10:40:53;;;;;;;4.73;2.27;;;16.40;38.80;;;;;;5062012;28;20914;-71
2023/02/17 10:43:25;;;;;;;3.70;2.10;;;16.50;38.50;;;;;;5061923;28;20571;-71
2023/02/17 10:45:53;;;;;;;5.07;1.67;;;16.80;38.30;;;;;;5062477;28;20451;-70
2023/02/17 10:48:23;;;;;;;4.20;2.10;;;17.20;38.10;;;;;;5057899;28;20528;-71
2023/02/17 10:50:50;;;;;;;3.53;2.10;;;17.50;37.70;;;;;;5061338;28;20522;-71
2023/02/17 10:53:21;;;;;;;4.30;2.13;;;17.40;37.20;;;;;;5057699;28;20519;-71
2023/02/17 10:55:57;;;;;;;5.17;1.77;;;17.50;37.70;;;;;;5057589;28;20475;-71
2023/02/17 10:58:31;;;;;;;5.40;2.23;;;17.60;37.00;;;;;;5051159;28;20762;-71
2023/02/17 11:00:58;;;;;;;4.83;2.87;;;17.60;36.60;;;;;;5054109;28;20898;-71
2023/02/17 11:03:27;;;;;;;5.20;2.27;;;17.80;36.50;;;;;;5060094;28;20503;-71
2023/02/17 11:05:56;;;;;;;4.17;2.53;;;17.90;36.20;;;;;;5058764;28;20485;-71
2023/02/17 11:08:35;;;;;;;6.33;2.40;;;18.30;36.10;;;;;;5054669;28;20473;-71
2023/02/17 11:11:04;;;;;;;8.10;2.50;;;18.70;35.80;;;;;;5054821;28;20865;-71
2023/02/17 11:13:36;;;;;;;8.00;2.53;;;19.00;35.30;;;;;;5055017;28;20440;-71
2023/02/17 11:16:04;;;;;;;3.77;3.17;;;19.30;34.80;;;;;;5058049;28;20861;-71
2023/02/17 11:18:34;;;;;;;6.43;2.13;;;19.30;34.80;;;;;;5054321;28;20473;-71
2023/02/17 11:21:05;;;;;;;3.93;1.97;;;19.40;34.70;;;;;;5057027;28;20444;-72
2023/02/17 11:23:34;;;;;;;6.57;2.20;;;19.30;34.20;;;;;;5052538;28;20884;-71
2023/02/17 11:26:09;;;;;;;5.60;2.20;;;19.30;34.20;;;;;;5052353;28;20531;-71
2023/02/17 11:28:36;;;;;;;5.73;1.83;;;19.00;34.50;;;;;;5051982;28;20471;-72
2023/02/17 11:31:05;;;;;;;5.83;2.47;;;18.80;34.90;;;;;;5052252;28;20472;-71
2023/02/17 11:33:35;;;;;;;5.47;1.50;;;18.60;35.00;;;;;;5052063;28;20429;-71
2023/02/17 11:36:04;;;;;;;5.63;2.70;;;18.40;35.40;;;;;;5051985;28;20483;-76
2023/02/17 11:38:43;;;;;;;6.07;2.27;;;18.30;35.50;;;;;;5053347;28;20433;-71
2023/02/17 11:41:11;;;;;;;5.30;2.20;;;18.20;36.10;;;;;;5052431;28;20468;-71
2023/02/17 11:43:51;;;;;;;5.23;2.30;;;18.10;36.00;;;;;;5052657;28;20985;-71
2023/02/17 11:46:28;;;;;;;6.27;1.93;;;18.00;35.80;;;;;;5051423;28;20436;-71
2023/02/17 11:49:34;;;;;;;6.20;2.33;;;17.90;36.30;;;;;;5051454;28;20520;-70
2023/02/17 11:52:16;;;;;;;5.90;1.83;;;17.70;36.90;;;;;;5044716;28;20444;-71
2023/02/17 11:55:02;;;;;;;5.60;2.50;;;17.60;36.90;;;;;;5051916;28;20445;-71
2023/02/17 11:57:37;;;;;;;4.70;2.80;;;17.60;37.30;;;;;;5051825;28;20499;-71
2023/02/17 12:00:16;;;;;;;3.37;1.90;;;17.60;37.70;;;;;;5054805;28;20437;-70
2023/02/17 12:03:20;;;;;;;6.40;1.83;;;17.60;37.30;;;;;;5055511;28;20848;-73
2023/02/17 12:05:57;;;;;;;5.40;1.60;;;17.40;37.90;;;;;;5055546;28;20440;-71
2023/02/17 12:08:32;;;;;;;9.00;2.80;;;17.40;38.20;;;;;;5049749;28;20491;-70
2023/02/17 12:11:10;;;;;;;3.27;1.33;;;17.40;38.30;;;;;;5064755;28;20463;-70
2023/02/17 12:13:48;;;;;;;2.30;1.50;;;17.30;38.50;;;;;;5072842;28;20504;-71
2023/02/17 12:16:43;;;;;;;3.17;1.20;;;17.20;38.80;;;;;;5074687;28;20469;-70
2023/02/17 12:19:36;;;;;;;3.97;1.40;;;17.20;39.40;;;;;;5055231;28;20523;-70
2023/02/17 12:22:13;;;;;;;4.30;1.30;;;17.30;39.30;;;;;;5055446;28;20515;-70
2023/02/17 12:25:03;;;;;;;3.50;1.50;;;17.30;40.10;;;;;;5055626;28;20563;-70
2023/02/17 12:27:49;;;;;;;6.33;2.10;;;17.40;39.50;;;;;;5075136;28;20436;-70
2023/02/17 12:30:28;;;;;;;3.23;1.33;;;17.50;39.40;;;;;;5068409;28;20826;-71
2023/02/17 12:33:22;;;;;;;4.60;1.60;;;17.80;39.10;;;;;;5055094;28;20441;-70
2023/02/17 12:35:52;;;;;;;3.50;1.23;;;17.90;39.00;;;;;;5030135;28;20541;-74
2023/02/17 12:38:25;;;;;;;3.50;2.03;;;17.90;38.50;;;;;;5049942;28;20433;-70
2023/02/17 12:40:57;;;;;;;3.23;1.43;;;17.90;38.60;;;;;;5061594;28;20942;-70
2023/02/17 12:43:30;;;;;;;2.50;1.33;;;17.90;39.00;;;;;;5074241;28;20519;-70
2023/02/17 12:45:59;;;;;;;4.10;1.20;;;17.70;39.00;;;;;;5066894;28;20444;-71
2023/02/17 12:48:31;;;;;;;3.17;1.10;;;17.60;39.70;;;;;;5057883;28;20483;-70
2023/02/17 12:51:04;;;;;;;2.10;1.20;;;17.50;39.80;;;;;;5070783;28;20472;-70
2023/02/17 12:53:43;;;;;;;3.13;1.67;;;17.30;40.70;;;;;;5053984;28;20476;-70
2023/02/17 12:56:37;;;;;;;2.80;1.30;;;17.20;40.80;;;;;;5054691;28;20456;-71
2023/02/17 12:59:14;;;;;;;3.20;1.30;;;17.10;41.20;;;;;;5054431;28;20444;-71
2023/02/17 13:01:54;;;;;;;5.23;1.20;;;17.20;41.70;;;;;;5054182;28;20881;-70
2023/02/17 13:04:25;;;;;;;6.13;1.60;;;17.40;41.50;;;;;;5054101;28;20554;-71
2023/02/17 13:06:59;;;;;;;3.63;1.60;;;17.40;41.10;;;;;;5054328;28;20432;-70
2023/02/17 13:09:32;;;;;;;2.83;1.40;;;17.40;41.40;;;;;;5054289;28;20471;-71